Time;durP1;ratioP1;P1;durP2;ratioP2;P2;SDS_P1;SDS_P2;PMS_P1;PMS_P2;Temp;Humidity;BMP_temperature;BMP_pressure;BME280_temperature;BME280_humidity;BME280_pressure;Samples;Min_cycle;Max_cycle;Signal;HPM_P1;HPM_P2
2023/01/03 00:01:55;;;;;;;28.80;13.20;;;;;;;3.27;100.00;100072.07;1804327;79;20948;-76
2023/01/03 00:04:21;;;;;;;24.90;12.30;;;;;;;3.27;100.00;100073.78;1788110;79;21000;-76
2023/01/03 00:06:51;;;;;;;30.57;13.62;;;;;;;3.30;100.00;100072.55;1794571;79;21007;-76
2023/01/03 00:09:21;;;;;;;24.90;12.85;;;;;;;3.23;100.00;100069.42;1794097;79;20986;-76
2023/01/03 00:14:38;;;;;;;28.32;13.32;;;;;;;3.18;100.00;100066.73;1794023;78;21837;-76
2023/01/03 00:17:06;;;;;;;27.02;12.55;;;;;;;3.22;100.00;100068.53;1790987;79;20963;-76
2023/01/03 00:19:37;;;;;;;28.38;13.15;;;;;;;3.21;100.00;100068.09;1794549;79;21014;-76
2023/01/03 00:22:03;;;;;;;28.25;12.78;;;;;;;3.23;100.00;100061.28;1790107;79;20959;-76
2023/01/03 00:24:30;;;;;;;24.23;12.35;;;;;;;3.23;100.00;100065.14;1795667;79;21470;-76
2023/01/03 00:26:56;;;;;;;29.50;13.20;;;;;;;3.19;100.00;100064.63;1789676;79;21475;-76
2023/01/03 00:29:24;;;;;;;27.30;12.90;;;;;;;3.22;100.00;100074.09;1772452;80;21015;-76
2023/01/03 00:31:51;;;;;;;28.60;14.25;;;;;;;3.21;100.00;100064.24;1792144;79;21518;-76
2023/01/03 00:34:17;;;;;;;27.77;12.35;;;;;;;3.23;100.00;100069.42;1794452;79;21038;-77
2023/01/03 00:36:44;;;;;;;28.77;13.40;;;;;;;3.22;100.00;100065.10;1793915;79;20955;-76
2023/01/03 00:39:10;;;;;;;33.42;13.70;;;;;;;3.23;100.00;100068.14;1786398;79;21062;-76
2023/01/03 00:41:38;;;;;;;32.55;13.88;;;;;;;3.25;100.00;100066.03;1739391;82;21533;-76
2023/01/03 00:44:05;;;;;;;33.20;14.58;;;;;;;3.28;100.00;100064.83;1788733;80;20975;-76
2023/01/03 00:46:32;;;;;;;30.00;13.25;;;;;;;3.32;100.00;100068.30;1776867;80;21062;-76
2023/01/03 00:48:58;;;;;;;27.95;12.82;;;;;;;3.31;100.00;100070.02;1779404;80;21476;-76
2023/01/03 00:51:30;;;;;;;28.75;13.72;;;;;;;3.28;100.00;100064.83;1760391;80;20944;-76
2023/01/03 00:53:59;;;;;;;32.08;14.07;;;;;;;3.24;100.00;100062.14;1779768;80;21527;-76
2023/01/03 00:56:33;;;;;;;32.88;13.98;;;;;;;3.25;100.00;100058.33;1763974;80;20987;-76
2023/01/03 00:58:59;;;;;;;30.90;14.03;;;;;;;3.19;100.00;100063.34;1785100;80;20955;-76
2023/01/03 01:01:39;;;;;;;31.68;14.30;;;;;;;3.14;100.00;100062.38;1786407;80;20983;-76
2023/01/03 01:04:19;;;;;;;33.13;14.35;;;;;;;3.10;100.00;100061.44;1777370;80;20940;-76
2023/01/03 01:06:50;;;;;;;33.48;14.05;;;;;;;3.05;99.59;100064.77;1786656;80;20950;-76
2023/01/03 01:09:21;;;;;;;31.05;15.18;;;;;;;3.00;100.00;100067.22;1770977;80;20984;-76
2023/01/03 01:11:49;;;;;;;30.05;15.18;;;;;;;2.95;100.00;100061.14;1785861;80;20995;-76
2023/01/03 01:14:20;;;;;;;36.17;14.98;;;;;;;2.92;100.00;100060.63;1781214;80;21137;-76
2023/01/03 01:16:57;;;;;;;32.55;14.53;;;;;;;2.91;100.00;100064.48;1755387;80;21004;-76
2023/01/03 01:19:31;;;;;;;28.73;14.15;;;;;;;2.91;100.00;100061.91;1778561;80;20976;-76
2023/01/03 01:21:58;;;;;;;31.20;14.65;;;;;;;2.89;100.00;100055.88;1756202;80;21000;-75
2023/01/03 01:24:24;;;;;;;25.55;12.47;;;;;;;2.88;100.00;100057.55;1771608;80;20937;-75
2023/01/03 01:26:51;;;;;;;26.02;12.73;;;;;;;2.89;100.00;100055.45;1781278;79;21031;-75
2023/01/03 01:29:19;;;;;;;25.08;12.43;;;;;;;2.88;100.00;100053.70;1783269;80;20972;-75
2023/01/03 01:31:47;;;;;;;24.45;12.80;;;;;;;2.88;100.00;100065.26;1782650;80;21011;-75
2023/01/03 01:34:14;;;;;;;24.85;12.10;;;;;;;2.91;100.00;100062.77;1771008;80;21004;-76
2023/01/03 01:36:42;;;;;;;25.77;12.30;;;;;;;2.96;100.00;100057.33;1771242;80;20980;-75
2023/01/03 01:39:19;;;;;;;26.55;11.70;;;;;;;2.95;100.00;100051.72;1787122;79;20995;-75
2023/01/03 01:44:51;;;;;;;29.40;12.33;;;;;;;2.96;100.00;100052.19;1796495;80;20944;-75
2023/01/03 01:47:53;;;;;;;27.37;12.37;;;;;;;2.94;100.00;100046.12;1796662;80;21026;-76
2023/01/03 01:50:43;;;;;;;27.93;12.88;;;;;;;2.96;100.00;100051.30;1796861;80;20964;-76
2023/01/03 01:53:17;;;;;;;30.52;13.32;;;;;;;2.97;100.00;100052.62;1796740;80;20983;-75
2023/01/03 01:55:49;;;;;;;30.88;14.33;;;;;;;2.98;100.00;100057.33;1796850;80;20975;-75
2023/01/03 01:58:17;;;;;;;29.25;12.78;;;;;;;3.01;100.00;100056.55;1796132;80;21054;-76
2023/01/03 02:00:44;;;;;;;34.70;15.30;;;;;;;3.01;100.00;100053.98;1795439;79;21530;-76
2023/01/03 02:03:11;;;;;;;33.63;16.42;;;;;;;3.02;100.00;100045.42;1795601;79;21534;-75
2023/01/03 02:05:45;;;;;;;32.63;14.80;;;;;;;2.99;100.00;100047.09;1795685;79;20967;-75
2023/01/03 02:08:12;;;;;;;28.35;14.45;;;;;;;2.97;100.00;100060.33;1762501;80;21328;-76
2023/01/03 02:10:50;;;;;;;29.25;15.20;;;;;;;2.97;100.00;100056.91;1795819;80;20967;-75
2023/01/03 02:13:42;;;;;;;28.25;14.33;;;;;;;2.97;100.00;100056.91;1795259;80;21078;-76
2023/01/03 02:16:33;;;;;;;29.87;14.75;;;;;;;2.92;100.00;100054.21;1795894;80;20998;-76
2023/01/03 02:19:14;;;;;;;27.52;13.50;;;;;;;2.92;100.00;100056.78;1795859;80;21155;-76
2023/01/03 02:22:04;;;;;;;27.67;12.93;;;;;;;2.89;100.00;100049.45;1791475;80;21543;-75
2023/01/03 02:25:14;;;;;;;28.12;15.25;;;;;;;2.88;100.00;100042.56;1795749;80;21027;-76
2023/01/03 02:28:16;;;;;;;31.37;14.18;;;;;;;2.85;100.00;100046.38;1795405;80;21047;-76
2023/01/03 02:30:54;;;;;;;30.97;13.78;;;;;;;2.89;100.00;100055.88;1795750;80;22274;-76
2023/01/03 02:33:42;;;;;;;27.30;12.90;;;;;;;2.87;100.00;100057.13;1795156;78;21085;-76
2023/01/03 02:36:29;;;;;;;25.85;13.40;;;;;;;2.85;100.00;100061.36;1795545;80;21555;-75
2023/01/03 02:39:47;;;;;;;27.62;13.90;;;;;;;2.90;100.00;100064.88;1795654;80;21373;-76
2023/01/03 02:45:42;;;;;;;24.50;12.43;;;;;;;2.93;100.00;100048.26;1830961;78;21009;-75
2023/01/03 02:48:26;;;;;;;26.60;13.50;;;;;;;2.98;100.00;100057.33;1830982;78;21434;-76
2023/01/03 02:50:57;;;;;;;32.20;13.58;;;;;;;3.04;100.00;100057.88;1828970;78;20975;-75
2023/01/03 02:53:28;;;;;;;25.02;12.75;;;;;;;3.05;100.00;100056.64;1798384;80;20987;-76
2023/01/03 02:55:59;;;;;;;27.48;13.28;;;;;;;3.06;100.00;100062.64;1766064;81;21018;-76
2023/01/03 02:58:29;;;;;;;31.68;14.87;;;;;;;3.08;100.00;100054.55;1766086;81;21080;-76
2023/01/03 03:01:00;;;;;;;26.80;14.05;;;;;;;3.01;100.00;100054.84;1766220;81;20951;-76
2023/01/03 03:03:32;;;;;;;29.00;13.28;;;;;;;2.97;99.98;100056.91;1798321;79;21051;-76
2023/01/03 03:06:16;;;;;;;28.75;13.40;;;;;;;2.88;99.67;100066.55;1766042;81;21050;-75
2023/01/03 03:08:47;;;;;;;;;;;;;;;2.81;99.87;100064.70;1769540;80;20983;-76
2023/01/03 03:14:32;;;;;;;31.73;14.55;;;;;;;2.53;99.03;100073.06;1829898;78;21034;-76
2023/01/03 03:17:04;;;;;;;30.25;12.63;;;;;;;2.43;99.74;100073.69;1826006;78;20950;-76
2023/01/03 03:26:09;;;;;;;27.93;13.25;;;;;;;2.24;99.89;100074.08;1828248;78;20930;-75
2023/01/03 03:28:37;;;;;;;;;;;;;;;2.22;100.00;100066.76;1807655;78;20961;-75
2023/01/03 03:31:42;;;;;;;27.27;12.07;;;;;;;2.14;100.00;100071.27;1823765;78;20117;-75
2023/01/03 03:34:25;;;;;;;29.98;12.40;;;;;;;2.21;100.00;100076.16;1803436;78;21484;-76
2023/01/03 03:37:12;;;;;;;25.35;11.65;;;;;;;2.15;100.00;100076.88;1831121;78;21766;-75
2023/01/03 03:46:01;;;;;;;27.35;11.97;;;;;;;2.12;100.00;100081.05;1812769;78;20954;-76
2023/01/03 03:51:35;;;;;;;;;;;;;;;2.08;100.00;100085.23;1828060;78;21007;-75
2023/01/03 03:54:06;;;;;;;24.47;10.82;;;;;;;2.12;100.00;100089.61;1821887;78;20133;-75
2023/01/03 03:56:35;;;;;;;22.55;10.48;;;;;;;2.06;100.00;100089.46;1806703;78;20969;-75
2023/01/03 03:59:06;;;;;;;25.62;12.43;;;;;;;2.04;100.00;100087.27;1824664;78;21042;-76
2023/01/03 04:01:35;;;;;;;26.15;12.13;;;;;;;2.02;100.00;100090.64;1799596;78;21279;-76
2023/01/03 04:04:10;;;;;;;27.07;12.13;;;;;;;2.02;100.00;100098.33;1822550;78;21566;-75
2023/01/03 04:06:44;;;;;;;25.55;12.37;;;;;;;2.05;100.00;100091.98;1827565;78;21407;-75
2023/01/03 04:09:11;;;;;;;25.48;13.13;;;;;;;2.03;100.00;100093.25;1826998;78;20958;-76
2023/01/03 04:11:38;;;;;;;25.97;12.30;;;;;;;2.00;100.00;100089.30;1826876;78;20934;-75
2023/01/03 04:14:04;;;;;;;27.70;12.75;;;;;;;2.02;100.00;100090.64;1822151;78;21506;-75
2023/01/03 04:16:31;;;;;;;24.20;11.65;;;;;;;2.01;100.00;100093.63;1827841;78;20962;-76
2023/01/03 04:18:58;;;;;;;21.20;10.93;;;;;;;2.00;100.00;100089.30;1824244;78;20962;-75
2023/01/03 04:21:25;;;;;;;26.42;10.85;;;;;;;1.97;100.00;100093.09;1827779;78;21005;-75
2023/01/03 04:23:51;;;;;;;27.10;12.13;;;;;;;1.92;100.00;100094.23;1825226;78;20920;-75
2023/01/03 04:26:17;;;;;;;25.57;11.40;;;;;;;1.88;100.00;100095.41;1827658;78;21438;-75
2023/01/03 04:28:44;;;;;;;31.10;12.82;;;;;;;1.89;100.00;100089.05;1822616;78;21003;-76
2023/01/03 04:31:10;;;;;;;29.48;11.68;;;;;;;1.85;100.00;100094.03;1810568;78;20984;-75
2023/01/03 04:33:37;;;;;;;30.72;11.83;;;;;;;1.82;100.00;100099.95;1825107;78;21463;-77
2023/01/03 04:36:04;;;;;;;21.15;10.18;;;;;;;1.82;100.00;100097.39;1824370;78;21053;-75
2023/01/03 04:38:30;;;;;;;28.42;11.33;;;;;;;1.77;100.00;100094.72;1812153;78;20979;-75
2023/01/03 04:41:06;;;;;;;23.12;10.60;;;;;;;1.79;100.00;100098.19;1754340;79;21023;-76
2023/01/03 04:46:18;;;;;;;31.10;13.13;;;;;;;1.73;100.00;100111.24;1795510;78;20960;-76
2023/01/03 04:48:45;;;;;;;31.00;13.28;;;;;;;1.74;100.00;100115.14;1796727;79;21010;-76
2023/01/03 04:51:12;;;;;;;28.40;12.45;;;;;;;1.71;100.00;100121.48;1827892;78;20946;-76
2023/01/03 04:53:38;;;;;;;26.77;11.10;;;;;;;1.67;100.00;100119.66;1798778;78;20973;-75
2023/01/03 04:56:05;;;;;;;24.32;12.28;;;;;;;1.69;100.00;100123.14;1813797;78;21431;-76
2023/01/03 04:58:32;;;;;;;23.07;9.98;;;;;;;1.66;100.00;100125.59;1802035;79;20986;-76
2023/01/03 05:01:00;;;;;;;31.15;12.85;;;;;;;1.64;100.00;100127.25;1818495;78;20920;-76
2023/01/03 05:03:28;;;;;;;28.92;13.00;;;;;;;1.63;100.00;100117.81;1748837;79;21054;-76
2023/01/03 05:06:04;;;;;;;26.93;12.15;;;;;;;1.62;100.00;100118.66;1819458;76;21050;-76
2023/01/03 05:08:32;;;;;;;22.02;11.15;;;;;;;1.66;100.00;100118.33;1822436;78;20961;-76
2023/01/03 05:10:59;;;;;;;19.98;9.53;;;;;;;1.68;100.00;100114.97;1818859;78;21459;-76
2023/01/03 05:13:25;;;;;;;22.07;9.88;;;;;;;1.69;100.00;100123.14;1822560;76;20989;-76
2023/01/03 05:15:52;;;;;;;20.65;8.55;;;;;;;1.70;100.00;100126.14;1833313;78;20967;-76
2023/01/03 05:18:18;;;;;;;18.70;9.30;;;;;;;1.68;100.00;100130.77;1827638;78;21020;-76
2023/01/03 05:26:21;;;;;;;30.15;11.20;;;;;;;1.74;100.00;100134.36;1828412;78;20962;-76
2023/01/03 05:28:51;;;;;;;25.95;10.18;;;;;;;1.74;100.00;100132.22;1833484;78;21759;-76
2023/01/03 05:31:19;;;;;;;22.50;9.40;;;;;;;1.76;100.00;100127.58;1833173;78;21014;-76
2023/01/03 05:33:45;;;;;;;19.82;9.28;;;;;;;1.75;100.00;100128.81;1833369;76;21420;-76
2023/01/03 05:36:12;;;;;;;18.70;8.90;;;;;;;1.77;100.00;100132.28;1797692;78;20951;-76
2023/01/03 05:38:38;;;;;;;21.62;9.93;;;;;;;1.78;100.00;100131.05;1818082;78;20991;-76
2023/01/03 05:41:05;;;;;;;24.35;10.10;;;;;;;1.77;100.00;100130.62;1833412;78;21013;-76
2023/01/03 05:43:32;;;;;;;20.72;9.23;;;;;;;1.78;100.00;100131.48;1833419;78;20962;-76
2023/01/03 05:45:58;;;;;;;20.30;9.73;;;;;;;1.84;100.00;100133.34;1825845;78;21787;-75
2023/01/03 05:48:25;;;;;;;23.52;10.20;;;;;;;1.77;100.00;100136.13;1822235;78;20918;-76
2023/01/03 05:50:56;;;;;;;25.00;11.10;;;;;;;1.78;100.00;100128.48;1830870;78;20975;-76
2023/01/03 05:53:23;;;;;;;19.55;9.35;;;;;;;1.79;100.00;100134.48;1804808;79;20946;-76
2023/01/03 05:55:49;;;;;;;22.48;10.43;;;;;;;1.81;100.00;100135.81;1794822;79;22322;-76
2023/01/03 05:58:16;;;;;;;20.68;9.05;;;;;;;1.77;100.00;100137.03;1790665;80;21012;-76
2023/01/03 06:00:42;;;;;;;16.73;7.80;;;;;;;1.76;100.00;100144.25;1832086;78;20990;-76
2023/01/03 06:03:09;;;;;;;16.75;7.72;;;;;;;1.76;100.00;100140.82;1830356;76;21042;-76
2023/01/03 06:05:35;;;;;;;19.00;8.93;;;;;;;1.77;100.00;100148.56;1832048;78;21566;-76
2023/01/03 06:08:02;;;;;;;19.00;8.25;;;;;;;1.73;100.00;100152.27;1828486;78;20979;-75
2023/01/03 06:10:29;;;;;;;19.60;8.93;;;;;;;1.75;100.00;100152.78;1828452;78;20986;-76
2023/01/03 06:12:55;;;;;;;18.82;8.80;;;;;;;1.74;100.00;100162.98;1831553;76;21061;-76
2023/01/03 06:15:22;;;;;;;17.62;7.42;;;;;;;1.67;100.00;100171.32;1830428;78;21064;-76
2023/01/03 06:17:58;;;;;;;19.75;8.38;;;;;;;1.63;100.00;100174.20;1775834;79;21606;-76
2023/01/03 06:20:26;;;;;;;23.45;9.83;;;;;;;1.61;100.00;100175.00;1826806;78;22056;-75
2023/01/03 06:22:54;;;;;;;19.60;9.00;;;;;;;1.59;100.00;100177.13;1833393;78;20961;-76
2023/01/03 06:25:21;;;;;;;23.20;8.88;;;;;;;1.61;100.00;100178.84;1833319;78;21001;-76
2023/01/03 06:27:48;;;;;;;23.18;9.65;;;;;;;1.62;100.00;100177.61;1833488;78;20938;-75
2023/01/03 06:30:15;;;;;;;24.77;11.53;;;;;;;1.56;100.00;100174.88;1830843;78;21077;-75
2023/01/03 06:32:42;;;;;;;21.68;10.25;;;;;;;1.60;100.00;100189.52;1833442;78;20985;-76
2023/01/03 06:35:10;;;;;;;23.87;10.43;;;;;;;1.60;100.00;100189.52;1833598;78;20979;-75
2023/01/03 06:37:36;;;;;;;18.92;9.15;;;;;;;1.65;100.00;100194.38;1833443;78;20993;-76
2023/01/03 06:40:05;;;;;;;21.73;10.03;;;;;;;1.69;100.00;100196.20;1794864;79;21059;-75
2023/01/03 06:42:41;;;;;;;24.32;11.05;;;;;;;1.74;100.00;100200.16;1820317;78;21488;-76
2023/01/03 06:53:36;;;;;;;20.92;9.33;;;;;;;1.84;100.00;100200.88;1788585;78;21489;-76
2023/01/03 06:56:04;;;;;;;22.35;9.40;;;;;;;1.84;100.00;100202.16;1793558;78;20983;-76
2023/01/03 06:58:31;;;;;;;21.02;10.25;;;;;;;1.87;100.00;100211.23;1798858;79;20924;-76
2023/01/03 07:01:01;;;;;;;22.82;10.82;;;;;;;1.90;100.00;100216.42;1783061;79;20977;-76
2023/01/03 07:03:28;;;;;;;20.20;8.73;;;;;;;1.94;100.00;100208.41;1802063;78;20979;-76
2023/01/03 07:05:55;;;;;;;25.00;8.95;;;;;;;1.91;100.00;100210.48;1801494;79;21002;-76
2023/01/03 07:08:21;;;;;;;19.10;8.28;;;;;;;1.87;100.00;100216.75;1801412;79;20975;-77
2023/01/03 07:10:48;;;;;;;22.98;10.98;;;;;;;1.86;100.00;100217.17;1826756;78;21545;-76
2023/01/03 07:15:59;;;;;;;26.65;11.10;;;;;;;1.81;100.00;100223.88;1786398;79;21096;-75
2023/01/03 07:18:26;;;;;;;24.07;11.43;;;;;;;1.78;100.00;100230.19;1783488;79;21020;-76
2023/01/03 07:20:53;;;;;;;20.60;9.18;;;;;;;1.78;100.00;100228.91;1822072;78;21946;-76
2023/01/03 07:23:20;;;;;;;23.70;10.15;;;;;;;1.79;100.00;100231.91;1821221;78;20991;-76
2023/01/03 07:25:46;;;;;;;22.15;10.13;;;;;;;1.79;100.00;100230.24;1818783;78;21548;-76
2023/01/03 07:28:15;;;;;;;22.58;10.25;;;;;;;1.83;100.00;100238.00;1777753;79;21012;-76
2023/01/03 07:30:45;;;;;;;23.87;9.38;;;;;;;1.87;100.00;100238.16;1827391;78;21549;-76
2023/01/03 07:33:14;;;;;;;21.35;9.20;;;;;;;1.89;100.00;100244.20;1823384;78;20973;-75
2023/01/03 07:35:41;;;;;;;21.23;11.30;;;;;;;1.90;100.00;100252.75;1818137;78;21006;-75
2023/01/03 07:38:10;;;;;;;23.38;10.60;;;;;;;1.85;100.00;100251.34;1806060;78;20928;-75
2023/01/03 07:40:36;;;;;;;20.32;9.98;;;;;;;1.84;100.00;100256.42;1815475;78;21029;-75
2023/01/03 07:45:48;;;;;;;26.25;11.70;;;;;;;1.84;100.00;100254.72;1814821;78;21437;-75
2023/01/03 07:48:14;;;;;;;29.63;10.75;;;;;;;1.86;100.00;100256.92;1798419;78;20970;-76
2023/01/03 07:50:41;;;;;;;19.67;9.25;;;;;;;1.89;100.00;100257.41;1819976;78;21086;-75
2023/01/03 07:53:15;;;;;;;19.52;9.38;;;;;;;1.90;100.00;100258.73;1816439;78;21771;-75
2023/01/03 07:55:37;;;;;;;23.27;9.35;;;;;;;1.93;100.00;100257.95;1821787;78;20973;-76
2023/01/03 07:58:04;;;;;;;27.65;11.85;;;;;;;1.91;100.00;100261.78;1819313;78;21555;-75
2023/01/03 08:00:30;;;;;;;25.80;10.08;;;;;;;1.95;100.00;100261.42;1819707;78;21004;-75
2023/01/03 08:02:57;;;;;;;26.45;10.58;;;;;;;1.96;100.00;100265.33;1826635;78;20981;-76
2023/01/03 08:05:24;;;;;;;24.90;10.28;;;;;;;2.01;100.00;100249.19;1818869;78;21933;-76
2023/01/03 08:07:51;;;;;;;20.48;9.43;;;;;;;2.04;100.00;100251.44;1798839;78;20973;-76
2023/01/03 08:13:17;;;;;;;24.43;10.85;;;;;;;2.09;100.00;100255.41;1822900;78;21418;-75
2023/01/03 08:15:54;;;;;;;21.95;9.35;;;;;;;2.12;100.00;100242.67;1784422;78;21073;-76
2023/01/03 08:18:24;;;;;;;21.70;9.83;;;;;;;2.24;100.00;100251.13;1824751;78;20969;-76
2023/01/03 08:20:54;;;;;;;25.10;10.98;;;;;;;2.29;100.00;100251.70;1807973;78;21546;-75
2023/01/03 08:23:22;;;;;;;28.23;11.97;;;;;;;2.39;100.00;100257.95;1827144;78;20954;-75
2023/01/03 08:25:49;;;;;;;24.23;10.35;;;;;;;2.49;100.00;100253.52;1826465;78;21570;-77
2023/01/03 08:28:15;;;;;;;22.22;10.32;;;;;;;2.49;100.00;100257.36;1827169;78;21021;-76
2023/01/03 08:30:46;;;;;;;31.55;12.20;;;;;;;2.51;100.00;100266.39;1822583;78;20986;-76
2023/01/03 08:33:16;;;;;;;31.17;13.10;;;;;;;2.52;100.00;100267.70;1826465;78;21022;-75
2023/01/03 08:35:48;;;;;;;26.30;11.75;;;;;;;2.55;100.00;100275.91;1805717;78;21830;-75
2023/01/03 08:38:18;;;;;;;29.27;11.65;;;;;;;2.53;100.00;100272.02;1812395;78;20987;-76
2023/01/03 08:40:46;;;;;;;29.80;11.70;;;;;;;2.56;100.00;100275.92;1817300;78;20988;-75
2023/01/03 08:43:14;;;;;;;27.87;11.60;;;;;;;2.61;100.00;100268.37;1803382;77;20995;-76
2023/01/03 08:45:41;;;;;;;31.60;11.38;;;;;;;2.66;100.00;100262.05;1814020;78;21860;-76
2023/01/03 08:48:09;;;;;;;28.12;11.65;;;;;;;2.70;100.00;100269.00;1808408;78;21019;-76
2023/01/03 08:50:36;;;;;;;29.82;12.28;;;;;;;2.74;100.00;100261.41;1813368;78;21003;-76
2023/01/03 08:53:04;;;;;;;28.05;11.53;;;;;;;2.75;100.00;100258.45;1810590;78;20901;-76
2023/01/03 08:55:32;;;;;;;30.92;13.22;;;;;;;2.74;100.00;100251.56;1807837;78;21487;-76
2023/01/03 08:57:59;;;;;;;34.23;15.85;;;;;;;2.81;100.00;100251.31;1813902;78;21432;-76
2023/01/03 09:00:27;;;;;;;38.85;18.00;;;;;;;2.87;100.00;100249.76;1805756;78;21030;-76
2023/01/03 09:03:01;;;;;;;25.45;10.98;;;;;;;2.95;100.00;100244.81;1787797;78;21494;-76
2023/01/03 09:05:28;;;;;;;28.98;13.60;;;;;;;2.98;100.00;100238.05;1785967;79;20978;-75
2023/01/03 09:07:54;;;;;;;26.23;12.43;;;;;;;3.05;100.00;100231.34;1797813;78;20955;-76
2023/01/03 09:10:21;;;;;;;21.23;9.65;;;;;;;3.10;100.00;100233.59;1782319;79;20973;-76
2023/01/03 09:12:48;;;;;;;21.35;9.90;;;;;;;3.11;100.00;100239.62;1802150;78;20999;-76
2023/01/03 09:15:15;;;;;;;28.77;11.15;;;;;;;3.14;100.00;100235.82;1799954;78;21029;-76
2023/01/03 09:17:44;;;;;;;23.12;10.60;;;;;;;3.18;100.00;100230.81;1746779;79;21712;-75
2023/01/03 09:20:12;;;;;;;21.52;9.75;;;;;;;3.20;100.00;100232.10;1778613;79;21017;-76
2023/01/03 09:22:39;;;;;;;25.70;9.05;;;;;;;3.21;99.52;100233.85;1775439;79;20994;-76
2023/01/03 09:25:07;;;;;;;24.87;10.75;;;;;;;3.25;99.72;100223.23;1768952;79;21543;-76
2023/01/03 09:27:33;;;;;;;22.62;10.30;;;;;;;3.30;100.00;100217.37;1790484;78;20986;-76
2023/01/03 09:30:00;;;;;;;24.25;10.63;;;;;;;3.37;100.00;100216.66;1800429;78;21039;-76
2023/01/03 09:32:26;;;;;;;26.82;11.65;;;;;;;3.44;100.00;100209.06;1754152;81;20922;-76
2023/01/03 09:34:53;;;;;;;25.32;10.70;;;;;;;3.51;99.89;100207.09;1795400;78;21534;-76
2023/01/03 09:37:19;;;;;;;25.65;10.90;;;;;;;3.58;99.85;100206.37;1772467;79;20969;-76
2023/01/03 09:39:46;;;;;;;22.40;11.03;;;;;;;3.66;99.74;100194.56;1798216;78;20999;-76
2023/01/03 09:45:02;;;;;;;31.37;11.57;;;;;;;3.81;99.44;100194.41;1810863;78;21018;-76
2023/01/03 09:47:34;;;;;;;29.92;12.43;;;;;;;3.85;99.75;100191.06;1818150;78;20990;-76
2023/01/03 09:50:01;;;;;;;31.33;13.75;;;;;;;3.87;99.51;100176.09;1813054;78;21974;-76
2023/01/03 10:04:37;;;;;;;29.92;14.07;;;;;;;3.96;97.57;100163.84;1797340;78;20990;-76
2023/01/03 10:07:47;;;;;;;31.35;12.98;;;;;;;3.98;97.53;100168.60;1747980;81;21010;-76
2023/01/03 10:10:48;;;;;;;33.05;13.88;;;;;;;3.99;97.62;100170.32;1793070;78;21543;-75
2023/01/03 10:13:44;;;;;;;25.75;13.00;;;;;;;3.99;97.65;100167.75;1794667;78;22147;-76
2023/01/03 10:16:34;;;;;;;28.23;12.75;;;;;;;4.03;97.21;100164.81;1749680;81;21591;-76
2023/01/03 10:19:49;;;;;;;22.45;9.95;;;;;;;4.01;96.88;100166.06;1739829;80;21545;-76
2023/01/03 10:22:20;;;;;;;21.95;10.18;;;;;;;4.07;97.26;100160.17;1772584;79;21029;-76
2023/01/03 10:24:55;;;;;;;27.30;11.95;;;;;;;4.10;97.36;100155.06;1780231;79;21291;-76
2023/01/03 10:27:26;;;;;;;27.62;12.65;;;;;;;4.05;96.90;100164.00;1777268;79;20993;-75
2023/01/03 10:30:03;;;;;;;28.73;13.45;;;;;;;4.05;96.49;100156.28;1795516;78;21602;-77
2023/01/03 10:32:45;;;;;;;29.75;12.33;;;;;;;3.94;95.69;100162.95;1748845;79;21063;-77
2023/01/03 10:35:25;;;;;;;35.65;12.78;;;;;;;3.97;96.24;100148.84;1793190;78;20967;-76
2023/01/03 10:37:54;;;;;;;28.65;12.65;;;;;;;4.02;96.96;100139.52;1797847;78;21015;-75
2023/01/03 10:40:38;;;;;;;36.25;13.22;;;;;;;3.97;96.45;100148.84;1797567;78;20998;-76
2023/01/03 10:43:22;;;;;;;29.85;12.23;;;;;;;4.04;96.79;100136.94;1762027;79;21045;-76
2023/01/03 10:45:54;;;;;;;;;;;;;;;4.15;97.12;100132.86;1729478;81;20991;-76
2023/01/03 10:48:21;;;;;;;30.00;12.98;;;;;;;4.27;97.32;100136.93;1795790;78;20097;-76
2023/01/03 10:50:49;;;;;;;30.48;13.05;;;;;;;4.35;97.36;100131.91;1758491;80;20984;-76
2023/01/03 10:53:20;;;;;;;34.13;13.72;;;;;;;4.48;97.36;100131.28;1732320;81;21001;-76
2023/01/03 10:55:51;;;;;;;31.82;12.98;;;;;;;4.56;96.62;100121.97;1764534;80;20983;-76
2023/01/03 10:58:26;;;;;;;37.30;16.48;;;;;;;4.66;96.37;100127.27;1766963;80;21468;-76
2023/01/03 11:01:10;;;;;;;33.45;15.30;;;;;;;4.75;96.18;100123.53;1768773;80;21774;-76
2023/01/03 11:03:39;;;;;;;35.28;16.97;;;;;;;4.83;96.55;100124.50;1728724;81;20962;-76
2023/01/03 11:06:08;;;;;;;40.63;17.50;;;;;;;4.68;95.57;100126.45;1762070;80;22089;-76
2023/01/03 11:08:45;;;;;;;45.73;18.80;;;;;;;4.65;95.08;100126.81;1756463;80;20983;-77
2023/01/03 11:11:34;;;;;;;35.40;16.17;;;;;;;4.62;94.68;100125.49;1767527;80;21008;-76
2023/01/03 11:14:25;;;;;;;44.40;18.92;;;;;;;4.55;94.49;100116.36;1791780;79;21098;-76
2023/01/03 11:16:56;;;;;;;47.98;18.42;;;;;;;4.53;94.93;100119.33;1768992;80;20976;-76
2023/01/03 11:19:29;;;;;;;40.85;17.70;;;;;;;4.49;94.99;100113.69;1768271;80;20942;-76
2023/01/03 11:22:05;;;;;;;;;;;;;;;4.43;95.12;100111.02;1766642;80;21445;-78
2023/01/03 11:25:08;;;;;;;37.45;17.12;;;;;;;4.37;95.24;100109.63;1759244;80;20098;-76
2023/01/03 11:28:16;;;;;;;57.13;28.20;;;;;;;4.32;95.48;100103.56;1764494;80;20961;-76
2023/01/03 11:30:54;;;;;;;40.52;19.30;;;;;;;4.25;95.75;100101.29;1757069;80;20954;-76
2023/01/03 11:33:51;;;;;;;39.40;18.70;;;;;;;4.26;95.92;100108.19;1800286;79;20920;-76
2023/01/03 11:36:45;;;;;;;44.95;18.55;;;;;;;4.24;95.58;100093.53;1758064;80;21004;-76
2023/01/03 11:39:32;;;;;;;40.70;18.73;;;;;;;4.17;95.53;100088.28;1794274;79;20961;-76
2023/01/03 11:42:19;;;;;;;46.13;17.87;;;;;;;4.18;96.10;100099.47;1767092;79;20987;-76
2023/01/03 11:45:20;;;;;;;44.48;17.48;;;;;;;4.16;96.38;100093.00;1792811;78;21069;-76
2023/01/03 11:48:35;;;;;;;43.68;17.73;;;;;;;4.21;96.36;100090.92;1795406;79;20967;-76
2023/01/03 11:51:37;;;;;;;37.58;17.02;;;;;;;4.23;96.36;100097.82;1797545;79;20972;-76
2023/01/03 11:54:24;;;;;;;45.92;18.42;;;;;;;4.19;96.08;100099.47;1767037;80;21477;-76
2023/01/03 11:56:50;;;;;;;43.87;16.15;;;;;;;4.23;96.63;100111.13;1731778;81;21457;-76
2023/01/03 11:59:46;;;;;;;42.45;17.17;;;;;;;4.26;96.68;100097.00;1761453;80;20987;-76
2023/01/03 12:02:45;;;;;;;41.30;15.35;;;;;;;4.26;96.68;100105.61;1798594;79;20965;-76
2023/01/03 12:05:35;;;;;;;35.45;13.98;;;;;;;4.24;96.53;100098.28;1749173;80;20986;-76
2023/01/03 12:08:37;;;;;;;36.10;15.48;;;;;;;4.24;96.75;100095.70;1795369;79;21078;-76
2023/01/03 12:11:26;;;;;;;34.10;13.55;;;;;;;4.29;97.04;100103.50;1777722;79;20951;-76
2023/01/03 12:14:10;;;;;;;33.53;14.38;;;;;;;4.28;96.85;100101.78;1793533;79;20954;-76
2023/01/03 12:16:44;;;;;;;40.83;15.98;;;;;;;4.32;97.02;100086.83;1789605;79;21028;-76
2023/01/03 12:20:02;;;;;;;41.53;16.10;;;;;;;4.40;97.10;100082.66;1796409;79;21054;-76
2023/01/03 12:22:46;;;;;;;36.58;15.38;;;;;;;4.32;96.36;100089.41;1763569;80;21473;-76
2023/01/03 12:25:35;;;;;;;44.67;16.42;;;;;;;4.11;96.33;100080.47;1799061;79;21525;-76
2023/01/03 12:28:21;;;;;;;40.33;15.83;;;;;;;3.98;96.46;100091.41;1793884;79;20959;-76
2023/01/03 12:31:14;;;;;;;50.35;18.65;;;;;;;3.92;96.94;100083.16;1801165;79;21027;-76
2023/01/03 12:33:46;;;;;;;48.83;18.70;;;;;;;3.91;97.35;100086.98;1787512;79;21448;-76
2023/01/03 12:36:36;;;;;;;44.93;19.17;;;;;;;3.90;97.06;100090.38;1799706;79;20951;-77
2023/01/03 12:39:47;;;;;;;46.63;19.23;;;;;;;3.88;96.85;100095.92;1798638;79;20980;-76
2023/01/03 12:42:44;;;;;;;54.80;19.32;;;;;;;3.86;97.45;100080.48;1745236;80;21024;-76
2023/01/03 12:45:44;;;;;;;40.03;16.67;;;;;;;3.86;97.66;100085.63;1734899;81;21000;-77
2023/01/03 12:48:45;;;;;;;39.92;16.73;;;;;;;3.90;97.72;100089.09;1738344;82;21039;-76
2023/01/03 12:51:17;;;;;;;36.70;15.28;;;;;;;3.89;97.03;100084.80;1735106;82;21011;-76
2023/01/03 12:53:58;;;;;;;35.90;14.20;;;;;;;3.90;97.31;100082.27;1752303;81;20943;-76